Time;durP1;ratioP1;P1;durP2;ratioP2;P2;SDS_P1;SDS_P2;PMS_P1;PMS_P2;Temp;Humidity;BMP_temperature;BMP_pressure;BME280_temperature;BME280_humidity;BME280_pressure;Samples;Min_cycle;Max_cycle;Signal;HPM_P1;HPM_P2
2022/01/19 00:01:43;;;;;;;3.75;2.52;;;;;;;-3.97;73.99;100871.00;1757796;81;20939;-74
2022/01/19 00:04:10;;;;;;;3.58;2.17;;;;;;;-3.99;73.94;100877.83;1757790;81;20936;-73
2022/01/19 00:06:36;;;;;;;2.70;2.33;;;;;;;-3.97;74.03;100896.61;1757995;81;21486;-73
2022/01/19 00:09:04;;;;;;;3.95;2.42;;;;;;;-3.93;73.80;100888.53;1757684;81;21046;-75
2022/01/19 00:11:31;;;;;;;2.87;2.40;;;;;;;-3.91;73.71;100891.52;1757994;81;21481;-74
2022/01/19 00:13:58;;;;;;;2.58;2.05;;;;;;;-3.90;73.60;100890.66;1757716;80;20892;-74
2022/01/19 00:16:27;;;;;;;3.55;2.58;;;;;;;-3.91;73.64;100897.92;1757623;80;20979;-75
2022/01/19 00:18:55;;;;;;;2.35;2.15;;;;;;;-3.91;73.67;100890.64;1757755;80;21164;-76
2022/01/19 00:21:22;;;;;;;5.25;2.17;;;;;;;-3.90;73.73;100907.31;1757671;81;21454;-74
2022/01/19 00:23:49;;;;;;;2.70;1.82;;;;;;;-3.88;73.57;100901.77;1758038;81;21378;-76
2022/01/19 00:26:15;;;;;;;3.75;2.15;;;;;;;-3.86;73.63;100892.82;1757726;81;20892;-75
2022/01/19 00:28:42;;;;;;;4.12;1.87;;;;;;;-3.84;73.55;100896.24;1741059;81;20853;-75
2022/01/19 00:31:09;;;;;;;2.25;1.82;;;;;;;-3.84;73.43;100898.37;1757875;81;21555;-75
2022/01/19 00:33:38;;;;;;;4.97;2.08;;;;;;;-3.84;73.39;100896.24;1757758;81;20936;-75
2022/01/19 00:36:05;;;;;;;4.62;1.80;;;;;;;-3.82;73.41;100904.80;1757602;81;21561;-74
2022/01/19 00:38:32;;;;;;;8.60;2.62;;;;;;;-3.81;73.41;100907.34;1758058;80;20946;-75
2022/01/19 00:41:01;;;;;;;2.87;2.00;;;;;;;-3.80;73.38;100916.75;1757782;81;20915;-75
2022/01/19 00:43:28;;;;;;;2.58;2.00;;;;;;;-3.79;73.46;100917.17;1757756;81;21580;-74
2022/01/19 00:45:55;;;;;;;3.00;2.40;;;;;;;-3.79;73.45;100914.61;1757670;80;20881;-76
2022/01/19 00:48:22;;;;;;;4.55;2.40;;;;;;;-3.80;73.68;100916.75;1758089;81;20853;-76
2022/01/19 00:50:50;;;;;;;4.10;2.60;;;;;;;-3.78;73.89;100911.21;1757649;81;20880;-74
2022/01/19 00:53:18;;;;;;;3.58;2.58;;;;;;;-3.76;74.00;100909.52;1757832;81;21466;-76
2022/01/19 00:55:45;;;;;;;3.70;2.15;;;;;;;-3.75;73.95;100900.11;1757609;81;21542;-76
2022/01/19 00:58:12;;;;;;;2.83;2.30;;;;;;;-3.72;73.94;100897.55;1757627;81;21387;-74
2022/01/19 01:00:39;;;;;;;2.77;2.55;;;;;;;-3.72;73.79;100895.41;1757727;81;20909;-74
2022/01/19 01:03:07;;;;;;;2.67;2.15;;;;;;;-3.77;73.82;100894.97;1757783;81;20979;-76
2022/01/19 01:05:34;;;;;;;4.03;2.27;;;;;;;-3.79;73.88;100907.35;1757865;80;20971;-75
2022/01/19 01:08:01;;;;;;;4.72;2.22;;;;;;;-3.76;73.85;100910.80;1757723;80;21100;-76
2022/01/19 01:10:30;;;;;;;2.85;1.70;;;;;;;-3.73;73.74;100913.79;1757682;81;20932;-75
2022/01/19 01:13:16;;;;;;;3.65;2.72;;;;;;;-3.72;73.64;100918.05;1757657;81;20975;-75
2022/01/19 01:15:47;;;;;;;2.92;2.20;;;;;;;-3.72;73.47;100920.61;1755667;81;21089;-75
2022/01/19 01:20:35;;;;;;;2.05;1.87;;;;;;;-3.73;73.18;100911.22;1757670;80;21218;-75
2022/01/19 01:23:05;;;;;;;3.83;2.27;;;;;;;-3.72;73.03;100911.64;1758001;80;20877;-75
2022/01/19 01:25:34;;;;;;;6.28;2.30;;;;;;;-3.72;72.97;100909.08;1758022;81;20856;-75
2022/01/19 01:28:01;;;;;;;2.62;2.00;;;;;;;-3.72;72.82;100915.48;1757647;81;20928;-76
2022/01/19 01:31:59;;;;;;;4.37;1.87;;;;;;;-3.62;72.86;100930.05;1854443;77;22563;-74
2022/01/19 01:34:26;;;;;;;3.00;1.90;;;;;;;-3.61;72.48;100930.47;1822065;78;20958;-75
2022/01/19 01:36:55;;;;;;;5.75;2.58;;;;;;;-3.59;72.31;100942.02;1822137;78;21322;-74
2022/01/19 01:39:22;;;;;;;1.80;1.70;;;;;;;-3.56;72.23;100938.17;1821953;78;20879;-76
2022/01/19 01:41:49;;;;;;;2.52;1.87;;;;;;;-3.52;71.96;100950.58;1822249;78;20879;-75
2022/01/19 01:44:18;;;;;;;2.95;1.90;;;;;;;-3.55;71.78;100946.30;1821784;78;20926;-75
2022/01/19 01:46:56;;;;;;;2.52;2.02;;;;;;;-3.56;71.82;100953.14;1822147;78;20903;-74
2022/01/19 01:49:29;;;;;;;3.65;2.10;;;;;;;-3.55;71.75;100938.19;1821268;78;21151;-75
2022/01/19 01:54:37;;;;;;;4.30;1.80;;;;;;;-3.51;71.45;100950.59;1821969;78;20889;-73
2022/01/19 01:57:04;;;;;;;3.62;1.65;;;;;;;-3.54;71.37;100955.69;1821735;78;22118;-76
2022/01/19 01:59:34;;;;;;;2.60;2.27;;;;;;;-3.57;71.36;100959.54;1816339;78;20848;-74
2022/01/19 02:02:20;;;;;;;3.27;2.05;;;;;;;-3.57;71.45;100954.41;1817177;78;22087;-75
2022/01/19 02:04:47;;;;;;;4.12;2.22;;;;;;;-3.49;71.47;100957.86;1821726;78;20963;-73
2022/01/19 02:09:50;;;;;;;2.33;1.82;;;;;;;-3.45;70.93;100958.28;1820114;78;21432;-74
2022/01/19 02:23:24;;;;;;;2.50;1.87;;;;;;;-3.43;70.50;100978.80;1821842;78;21013;-75
2022/01/19 02:25:55;;;;;;;2.72;2.12;;;;;;;-3.44;70.51;100988.64;1821646;78;20971;-74
2022/01/19 02:31:49;;;;;;;2.30;1.80;;;;;;;-3.49;70.52;100986.47;1821809;78;20963;-76
2022/01/19 02:36:52;;;;;;;4.05;2.02;;;;;;;-3.42;70.74;100996.77;1821895;78;21413;-75
2022/01/19 02:41:52;;;;;;;2.92;2.27;;;;;;;-3.40;70.40;100990.34;1821804;78;22169;-75
2022/01/19 02:49:45;;;;;;;2.15;1.80;;;;;;;-3.47;70.46;100995.02;1821397;78;22298;-75
2022/01/19 02:52:12;;;;;;;3.35;1.62;;;;;;;-3.42;70.33;100992.06;1821314;78;20919;-73
2022/01/19 02:54:40;;;;;;;2.85;1.87;;;;;;;-3.44;70.40;100990.77;1821356;78;21555;-75
2022/01/19 02:57:10;;;;;;;2.77;2.40;;;;;;;-3.44;70.40;100985.64;1821279;78;21476;-76
2022/01/19 03:10:24;;;;;;;2.35;2.15;;;;;;;-3.41;70.26;100986.08;1821768;78;21366;-75
2022/01/19 03:12:52;;;;;;;2.02;1.85;;;;;;;-3.43;70.00;100980.94;1821477;78;20844;-73
2022/01/19 03:15:20;;;;;;;5.37;1.90;;;;;;;-3.44;70.07;100989.48;1821468;78;20879;-74
2022/01/19 03:17:48;;;;;;;2.30;1.95;;;;;;;-3.46;70.11;100995.47;1821321;78;20916;-75
2022/01/19 03:20:19;;;;;;;4.20;2.22;;;;;;;-3.46;70.26;100995.03;1821410;78;20899;-77
2022/01/19 03:22:56;;;;;;;2.83;2.30;;;;;;;-3.43;70.06;101000.59;1821355;78;21014;-76
2022/01/19 03:25:15;;;;;;;2.83;1.90;;;;;;;-3.45;70.01;101003.58;1819133;78;20923;-75
2022/01/19 03:27:47;;;;;;;3.20;1.65;;;;;;;-3.45;69.96;101001.86;1821265;78;20900;-77
2022/01/19 03:30:15;;;;;;;2.75;2.00;;;;;;;-3.44;69.87;101005.30;1821512;78;21352;-76
2022/01/19 03:32:42;;;;;;;2.42;1.55;;;;;;;-3.46;69.93;101009.56;1821412;78;21157;-76
2022/01/19 03:35:10;;;;;;;3.47;1.67;;;;;;;-3.47;69.91;101019.38;1821665;78;20887;-75
2022/01/19 03:37:39;;;;;;;5.15;2.00;;;;;;;-3.46;69.95;101014.27;1821413;78;21373;-76
2022/01/19 03:40:08;;;;;;;3.05;1.80;;;;;;;-3.44;69.94;101028.38;1821214;78;20971;-75
2022/01/19 03:42:35;;;;;;;4.30;1.67;;;;;;;-3.45;69.84;101030.49;1821346;78;20903;-75
2022/01/19 03:45:06;;;;;;;5.42;2.87;;;;;;;-3.49;69.83;101030.92;1821349;78;21553;-75
2022/01/19 03:47:40;;;;;;;2.55;2.30;;;;;;;-3.48;70.05;101040.31;1821301;78;20875;-76
2022/01/19 03:50:04;;;;;;;3.52;2.02;;;;;;;-3.46;69.81;101041.18;1820229;78;21365;-74
2022/01/19 03:52:31;;;;;;;2.72;1.77;;;;;;;-3.46;69.76;101047.59;1821392;78;21354;-74
2022/01/19 03:54:58;;;;;;;2.52;1.90;;;;;;;-3.43;69.70;101047.59;1821453;78;20920;-75
2022/01/19 03:57:25;;;;;;;2.52;2.27;;;;;;;-3.43;69.66;101050.16;1821449;78;21999;-75
2022/01/19 03:59:52;;;;;;;4.33;2.08;;;;;;;-3.39;69.61;101057.45;1822326;78;20912;-74
2022/01/19 04:02:20;;;;;;;4.12;1.67;;;;;;;-3.39;69.44;101056.16;1823261;78;21480;-74
2022/01/19 04:04:55;;;;;;;3.83;1.87;;;;;;;-3.39;69.36;101063.42;1823037;78;20951;-73
2022/01/19 04:07:21;;;;;;;2.15;1.47;;;;;;;-3.43;69.17;101064.25;1821016;78;20919;-74
2022/01/19 04:09:49;;;;;;;4.08;1.70;;;;;;;-3.45;69.22;101067.23;1821801;78;21877;-76
2022/01/19 04:12:25;;;;;;;2.25;1.72;;;;;;;-3.47;69.32;101071.92;1821875;78;21029;-75
2022/01/19 04:14:46;;;;;;;1.82;1.35;;;;;;;-3.55;69.42;101080.87;1822067;78;21286;-76
2022/01/19 04:17:15;;;;;;;2.30;2.10;;;;;;;-3.57;69.48;101077.02;1822882;78;21085;-77
2022/01/19 04:19:46;;;;;;;1.75;1.60;;;;;;;-3.62;69.69;101087.67;1821673;78;20876;-77
2022/01/19 04:22:21;;;;;;;1.47;1.37;;;;;;;-3.63;69.86;101091.06;1821802;78;21491;-76
2022/01/19 04:24:50;;;;;;;3.95;1.45;;;;;;;-3.65;69.87;101099.60;1821166;78;20860;-76
2022/01/19 04:29:55;;;;;;;1.85;1.70;;;;;;;-3.64;70.10;101096.20;1821523;78;21504;-76
2022/01/19 04:32:25;;;;;;;2.85;1.72;;;;;;;-3.64;70.11;101102.61;1823052;77;20895;-77
2022/01/19 04:34:49;;;;;;;2.27;2.02;;;;;;;-3.64;70.14;101097.05;1824660;77;21144;-76
2022/01/19 05:02:03;;;;;;;3.67;1.72;;;;;;;-3.57;69.72;101131.27;1824673;78;21142;-74
2022/01/19 05:04:35;;;;;;;2.50;1.65;;;;;;;-3.62;69.78;101135.09;1822820;78;20915;-76
2022/01/19 05:07:17;;;;;;;3.30;1.92;;;;;;;-3.63;69.91;101131.22;1822142;78;20935;-75
2022/01/19 05:09:57;;;;;;;2.83;1.98;;;;;;;-3.59;70.01;101138.09;1824966;78;21437;-74
2022/01/19 05:14:54;;;;;;;4.17;2.15;;;;;;;-3.50;69.81;101150.11;1824705;77;22149;-75
2022/01/19 05:17:24;;;;;;;2.42;2.22;;;;;;;-3.50;69.65;101152.67;1824965;78;20852;-76
2022/01/19 05:19:51;;;;;;;2.55;2.12;;;;;;;-3.54;69.69;101156.48;1824468;77;20914;-76
2022/01/19 05:22:18;;;;;;;3.77;1.72;;;;;;;-3.52;69.85;101167.19;1824766;78;21357;-76
2022/01/19 05:24:53;;;;;;;3.52;1.72;;;;;;;-3.47;69.97;101180.88;1824000;78;20923;-75
2022/01/19 05:27:27;;;;;;;3.25;1.47;;;;;;;-3.46;69.77;101188.59;1824862;78;21135;-75
2022/01/19 05:29:54;;;;;;;2.05;1.77;;;;;;;-3.43;69.73;101182.63;1824776;77;20891;-76
2022/01/19 05:32:22;;;;;;;4.35;2.33;;;;;;;-3.43;69.51;101184.75;1824873;77;21310;-77
2022/01/19 05:34:51;;;;;;;1.98;1.80;;;;;;;-3.43;69.37;101191.16;1824849;78;20931;-77
2022/01/19 05:37:19;;;;;;;1.67;1.55;;;;;;;-3.44;69.30;101184.34;1821490;78;20927;-76
2022/01/19 05:39:48;;;;;;;5.33;3.10;;;;;;;-3.47;69.30;101184.30;1795936;78;21142;-76
2022/01/19 05:42:23;;;;;;;5.42;1.90;;;;;;;-3.48;69.40;101182.59;1822607;78;20918;-77
2022/01/19 05:44:49;;;;;;;3.25;2.00;;;;;;;-3.43;69.26;101182.63;1824835;78;20887;-77
2022/01/19 05:47:16;;;;;;;2.12;1.80;;;;;;;-3.46;69.19;101183.89;1824794;78;21010;-79
2022/01/19 05:49:46;;;;;;;2.77;2.52;;;;;;;-3.49;69.17;101187.70;1825096;78;20918;-76
2022/01/19 05:52:14;;;;;;;5.03;2.47;;;;;;;-3.51;69.11;101190.28;1797069;78;21473;-75
2022/01/19 05:54:42;;;;;;;2.95;2.00;;;;;;;-3.49;69.13;101196.67;1824568;78;20887;-75
2022/01/19 05:57:10;;;;;;;2.87;1.80;;;;;;;-3.47;69.06;101197.11;1824678;78;20950;-75
2022/01/19 05:59:39;;;;;;;5.22;1.98;;;;;;;-3.48;69.07;101195.84;1819673;78;20927;-75
2022/01/19 06:02:06;;;;;;;1.92;1.62;;;;;;;-3.48;69.05;101197.97;1824659;78;20965;-76
2022/01/19 06:04:33;;;;;;;3.30;2.42;;;;;;;-3.48;68.96;101203.10;1824676;78;21149;-76
2022/01/19 06:07:04;;;;;;;2.00;1.55;;;;;;;-3.47;69.11;101194.55;1823615;78;20923;-76
2022/01/19 06:10:01;;;;;;;3.02;2.10;;;;;;;-3.45;68.87;101198.41;1823547;78;21365;-76
2022/01/19 06:12:20;;;;;;;2.42;1.57;;;;;;;-3.45;68.77;101204.83;1795283;78;20939;-76
2022/01/19 06:14:47;;;;;;;3.58;1.98;;;;;;;-3.44;68.75;101209.13;1825128;78;20908;-79
2022/01/19 06:17:14;;;;;;;4.10;2.10;;;;;;;-3.43;68.60;101210.82;1825099;78;21517;-77
2022/01/19 06:19:41;;;;;;;2.77;1.35;;;;;;;-3.43;68.58;101221.08;1825082;78;21379;-78
2022/01/19 06:22:10;;;;;;;3.05;1.82;;;;;;;-3.44;68.57;101223.22;1825039;78;20938;-77
2022/01/19 06:24:37;;;;;;;2.60;2.10;;;;;;;-3.45;68.49;101222.34;1825162;78;20970;-79
2022/01/19 06:27:05;;;;;;;3.33;2.08;;;;;;;-3.47;68.46;101223.18;1823970;78;20951;-78
2022/01/19 06:29:32;;;;;;;5.25;3.00;;;;;;;-3.51;68.36;101224.88;1823810;78;22383;-78
2022/01/19 06:32:00;;;;;;;3.95;1.90;;;;;;;-3.56;68.60;101232.94;1823353;78;20974;-78
2022/01/19 06:34:26;;;;;;;4.62;1.80;;;;;;;-3.54;68.58;101230.81;1821291;78;21013;-78
2022/01/19 06:37:11;;;;;;;;;;;;;;;-3.52;68.55;101238.96;1824230;78;21358;-79
2022/01/19 06:39:52;;;;;;;8.28;1.32;;;;;;;-3.52;68.56;101235.97;1782796;80;20076;-79
2022/01/19 06:42:19;;;;;;;4.92;3.70;;;;;;;-3.58;68.41;101238.47;1757071;80;21783;-78
2022/01/19 06:44:46;;;;;;;2.87;1.87;;;;;;;-3.58;68.62;101242.32;1783039;80;21018;-79
2022/01/19 06:47:13;;;;;;;3.87;1.87;;;;;;;-3.55;68.59;101251.34;1782875;80;21046;-78
2022/01/19 06:49:40;;;;;;;3.50;1.70;;;;;;;-3.50;68.41;101252.66;1782813;80;20983;-80
2022/01/19 06:52:08;;;;;;;3.85;1.70;;;;;;;-3.50;68.45;101245.81;1780275;80;20959;-79
2022/01/19 06:54:37;;;;;;;2.67;2.10;;;;;;;-3.48;68.34;101254.80;1776355;80;21164;-76
2022/01/19 06:57:05;;;;;;;2.45;1.67;;;;;;;-3.47;68.33;101257.79;1776630;80;20981;-78
2022/01/19 06:59:36;;;;;;;3.85;1.70;;;;;;;-3.43;68.38;101261.67;1776125;80;21022;-76
2022/01/19 07:02:22;;;;;;;2.12;1.82;;;;;;;-3.39;68.17;101263.41;1776221;80;20892;-77
2022/01/19 07:04:51;;;;;;;5.00;2.02;;;;;;;-3.37;67.60;101270.70;1775996;80;20844;-76
2022/01/19 07:07:22;;;;;;;4.00;1.70;;;;;;;-3.42;67.54;101272.81;1760955;80;21093;-77
2022/01/19 07:10:00;;;;;;;4.22;1.57;;;;;;;-3.42;67.88;101286.91;1775257;80;20924;-77
2022/01/19 07:12:26;;;;;;;3.25;2.10;;;;;;;-3.38;67.79;101288.63;1776482;80;21053;-77
2022/01/19 07:14:54;;;;;;;1.55;1.40;;;;;;;-3.35;67.54;101288.23;1780497;79;20861;-77
2022/01/19 07:17:21;;;;;;;2.12;1.52;;;;;;;-3.32;67.32;101301.94;1814364;78;20912;-77
2022/01/19 07:19:48;;;;;;;4.78;1.82;;;;;;;-3.32;67.13;101295.52;1814366;79;21521;-78
2022/01/19 07:22:18;;;;;;;1.75;1.65;;;;;;;-3.30;67.00;101298.53;1814497;79;20865;-79
2022/01/19 07:24:46;;;;;;;2.22;1.45;;;;;;;-3.29;66.98;101305.39;1814495;79;20943;-77
2022/01/19 07:27:13;;;;;;;1.95;1.30;;;;;;;-3.27;66.89;101303.67;1814346;78;20919;-79
2022/01/19 07:29:41;;;;;;;2.80;2.27;;;;;;;-3.27;66.65;101307.52;1814500;79;21357;-77
2022/01/19 07:32:11;;;;;;;1.80;1.37;;;;;;;-3.27;66.65;101315.64;1814279;78;21170;-78
2022/01/19 07:34:39;;;;;;;1.72;1.62;;;;;;;-3.28;66.68;101308.37;1783088;79;21397;-77
2022/01/19 07:37:07;;;;;;;1.45;1.27;;;;;;;-3.27;66.56;101315.64;1814556;79;20967;-79
2022/01/19 07:39:35;;;;;;;3.65;1.80;;;;;;;-3.27;66.52;101316.92;1814355;79;21370;-79
2022/01/19 07:42:02;;;;;;;1.55;1.27;;;;;;;-3.26;66.31;101310.97;1814699;79;20844;-79
2022/01/19 07:44:49;;;;;;;1.90;1.25;;;;;;;-3.26;66.11;101312.25;1746915;79;22126;-77
2022/01/19 07:47:30;;;;;;;1.85;1.42;;;;;;;-3.25;66.02;101311.39;1735700;82;20947;-78
2022/01/19 07:50:06;;;;;;;1.90;1.70;;;;;;;-3.28;65.92;101304.96;1734719;82;21378;-77
2022/01/19 07:52:41;;;;;;;2.05;1.32;;;;;;;-3.30;66.06;101299.81;1733775;82;20999;-77
2022/01/19 07:55:09;;;;;;;2.80;1.47;;;;;;;-3.26;66.13;101311.81;1733329;82;20944;-76
2022/01/19 07:57:40;;;;;;;2.15;1.22;;;;;;;-3.22;66.13;101299.45;1733981;82;21522;-76
2022/01/19 08:00:25;;;;;;;2.45;2.00;;;;;;;-3.18;65.71;101304.17;1736287;82;20856;-79
2022/01/19 08:02:52;;;;;;;4.15;1.47;;;;;;;-3.23;65.59;101304.14;1736100;82;21425;-78
2022/01/19 08:05:39;;;;;;;2.95;1.67;;;;;;;-3.27;65.39;101294.70;1717295;83;21429;-78
2022/01/19 08:08:08;;;;;;;2.83;1.25;;;;;;;-3.28;65.45;101300.69;1717426;83;21002;-79
2022/01/19 08:10:34;;;;;;;3.40;1.65;;;;;;;-3.26;65.52;101301.56;1717372;83;21143;-78
2022/01/19 08:13:03;;;;;;;1.60;1.35;;;;;;;-3.24;65.51;101291.33;1717418;83;21037;-80
2022/01/19 08:15:30;;;;;;;2.17;1.35;;;;;;;-3.20;65.57;101279.81;1717192;83;20983;-79
2022/01/19 08:17:59;;;;;;;1.50;1.20;;;;;;;-3.14;65.38;101287.53;1717244;83;21107;-78
2022/01/19 08:20:26;;;;;;;4.55;2.85;;;;;;;-3.11;65.27;101289.28;1717402;83;21010;-77
2022/01/19 08:22:53;;;;;;;2.15;1.52;;;;;;;-3.09;65.13;101290.16;1727254;81;21193;-78
2022/01/19 08:25:23;;;;;;;1.92;1.55;;;;;;;-3.08;65.08;101296.13;1757794;81;20868;-78
2022/01/19 08:27:50;;;;;;;2.37;1.90;;;;;;;-3.03;65.09;101297.02;1722178;83;21009;-78
2022/01/19 08:30:19;;;;;;;1.80;1.57;;;;;;;-3.04;64.91;101290.19;1722026;83;21041;-78
2022/01/19 08:32:46;;;;;;;1.45;1.35;;;;;;;-3.07;65.08;101276.03;1715456;82;21034;-77
2022/01/19 08:35:23;;;;;;;3.72;1.52;;;;;;;-3.07;65.08;101283.30;1707993;84;21337;-79
2022/01/19 08:38:05;;;;;;;2.98;1.57;;;;;;;-3.06;65.14;101290.59;1716826;83;21026;-79
2022/01/19 08:40:36;;;;;;;1.42;1.32;;;;;;;-3.06;65.11;101294.01;1724019;82;21374;-81
2022/01/19 08:43:10;;;;;;;3.10;1.52;;;;;;;-3.05;65.03;101302.55;1716738;81;20967;-78
2022/01/19 08:45:37;;;;;;;2.72;1.20;;;;;;;-3.12;64.63;101297.38;1733582;82;20959;-77
2022/01/19 08:48:05;;;;;;;2.80;1.65;;;;;;;-3.17;65.02;101293.08;1733108;82;21077;-77
2022/01/19 08:50:49;;;;;;;1.72;0.98;;;;;;;-3.14;65.25;101291.80;1676851;82;20857;-78
2022/01/19 08:53:27;;;;;;;2.92;1.80;;;;;;;-3.04;65.08;101288.47;1730864;82;21042;-77
2022/01/19 08:55:56;;;;;;;4.30;1.95;;;;;;;-2.93;65.03;101284.27;1731463;82;20935;-80
2022/01/19 08:58:22;;;;;;;4.08;1.65;;;;;;;-2.78;64.97;101278.77;1733616;82;20896;-76
2022/01/19 09:00:49;;;;;;;1.82;1.37;;;;;;;-2.60;64.70;101272.47;1733000;82;21125;-80
2022/01/19 09:03:17;;;;;;;2.15;1.37;;;;;;;-2.41;63.98;101269.97;1733660;81;20991;-82
2022/01/19 09:05:44;;;;;;;3.85;1.52;;;;;;;-2.27;64.15;101268.72;1733539;82;20935;-86
2022/01/19 09:08:11;;;;;;;3.77;1.00;;;;;;;-2.11;63.40;101270.50;1714138;82;20916;-86
2022/01/19 09:10:40;;;;;;;1.77;1.17;;;;;;;-2.04;62.84;101267.52;1732670;82;20932;-85
2022/01/19 09:13:10;;;;;;;2.05;1.22;;;;;;;-2.03;62.74;101275.22;1732895;82;21060;-85
2022/01/19 09:15:37;;;;;;;3.12;1.27;;;;;;;-2.03;62.30;101267.50;1732576;82;20975;-84
2022/01/19 09:18:04;;;;;;;2.45;0.98;;;;;;;-1.98;62.22;101275.22;1732944;82;20933;-87
2022/01/19 09:20:31;;;;;;;2.58;1.07;;;;;;;-1.92;61.98;101272.23;1732688;82;20892;-87
2022/01/19 09:22:58;;;;;;;1.05;1.00;;;;;;;-1.90;61.55;101271.81;1732586;82;20940;-83
2022/01/19 09:25:25;;;;;;;1.30;1.10;;;;;;;-1.90;61.82;101277.39;1732459;82;21108;-82
2022/01/19 09:27:52;;;;;;;1.77;1.27;;;;;;;-1.85;61.43;101277.39;1732677;82;20912;-82
2022/01/19 09:30:21;;;;;;;1.37;1.00;;;;;;;-1.89;61.26;101272.27;1732760;81;20916;-82
2022/01/19 09:33:05;;;;;;;0.80;0.80;;;;;;;-1.86;61.63;101276.98;1740725;81;20944;-82
2022/01/19 09:35:25;;;;;;;1.70;1.25;;;;;;;-1.72;61.76;101270.98;1751342;81;20853;-84
2022/01/19 09:37:53;;;;;;;4.60;1.27;;;;;;;-1.51;61.37;101271.88;1753547;81;21322;-82
2022/01/19 09:40:21;;;;;;;2.30;1.47;;;;;;;-1.42;60.78;101264.16;1753467;81;21516;-80
2022/01/19 09:42:50;;;;;;;3.70;1.52;;;;;;;-1.36;60.60;101264.56;1753556;81;20908;-82
2022/01/19 09:45:16;;;;;;;2.05;1.30;;;;;;;-1.26;60.43;101280.00;1753603;81;20991;-80
2022/01/19 09:47:44;;;;;;;2.45;1.50;;;;;;;-1.27;59.63;101287.70;1753315;81;20979;-83
2022/01/19 09:50:10;;;;;;;3.77;1.42;;;;;;;-1.36;59.69;101282.13;1753202;81;21571;-80
2022/01/19 09:52:38;;;;;;;1.37;1.27;;;;;;;-1.36;59.47;101285.99;1753378;81;20987;-82
2022/01/19 09:55:07;;;;;;;4.47;1.52;;;;;;;-1.38;59.39;101287.73;1753563;81;21078;-84
2022/01/19 09:57:34;;;;;;;1.77;1.40;;;;;;;-1.38;58.94;101282.59;1753485;81;20912;-83
2022/01/19 10:00:03;;;;;;;4.72;1.80;;;;;;;-1.42;59.19;101287.70;1753500;81;20940;-81
2022/01/19 10:02:32;;;;;;;5.78;1.70;;;;;;;-1.44;59.13;101288.17;1751597;81;21844;-83
2022/01/19 10:05:07;;;;;;;1.30;1.20;;;;;;;-1.43;58.98;101286.86;1753336;81;20946;-81
2022/01/19 10:07:34;;;;;;;3.72;0.95;;;;;;;-1.47;58.50;101280.87;1753124;81;20931;-82
2022/01/19 10:10:07;;;;;;;1.47;1.17;;;;;;;-1.53;58.53;101282.59;1753369;81;20948;-82
2022/01/19 10:18:23;;;;;;;1.20;1.10;;;;;;;-1.72;58.51;101267.13;1753194;81;21510;-81
2022/01/19 10:21:08;;;;;;;3.05;1.70;;;;;;;-1.77;59.00;101277.84;1753326;81;20979;-80
2022/01/19 10:23:46;;;;;;;1.55;1.40;;;;;;;-1.71;58.97;101283.43;1753569;81;21030;-81
2022/01/19 10:26:15;;;;;;;1.50;1.37;;;;;;;-1.69;58.40;101289.41;1753429;81;20947;-84
2022/01/19 10:29:01;;;;;;;3.08;1.55;;;;;;;-1.85;58.68;101278.68;1753399;81;21157;-83
2022/01/19 10:31:29;;;;;;;1.75;1.62;;;;;;;-1.94;58.39;101285.94;1753272;81;20991;-80
2022/01/19 10:34:19;;;;;;;1.50;0.93;;;;;;;-2.08;58.45;101284.63;1753224;81;20880;-82
2022/01/19 10:36:53;;;;;;;1.65;1.42;;;;;;;-2.19;58.75;101269.18;1753452;81;20939;-83
2022/01/19 10:39:21;;;;;;;3.12;1.80;;;;;;;-2.27;59.10;101289.27;1753118;81;20951;-81
2022/01/19 10:42:09;;;;;;;4.37;2.60;;;;;;;-2.36;59.48;101279.39;1753690;81;21783;-84
2022/01/19 10:44:46;;;;;;;3.45;2.10;;;;;;;-2.42;59.79;101283.64;1753274;81;20987;-84
2022/01/19 10:47:15;;;;;;;2.20;1.75;;;;;;;-2.45;60.14;101278.07;1748322;81;20849;-83
2022/01/19 10:49:53;;;;;;;2.85;2.10;;;;;;;-2.47;60.24;101290.48;1753598;81;21493;-82
2022/01/19 10:52:33;;;;;;;4.17;2.35;;;;;;;-2.45;60.38;101281.07;1753653;81;20900;-83
2022/01/19 10:55:02;;;;;;;2.35;1.90;;;;;;;-2.40;60.26;101285.80;1753253;81;21117;-82
2022/01/19 10:57:32;;;;;;;2.65;2.33;;;;;;;-2.37;60.35;101293.53;1753345;81;20892;-82
2022/01/19 11:00:20;;;;;;;2.70;2.02;;;;;;;-2.40;60.44;101280.66;1753266;81;20943;-82
2022/01/19 11:02:49;;;;;;;3.92;1.95;;;;;;;-2.43;60.37;101294.78;1753237;81;20944;-84
2022/01/19 11:05:17;;;;;;;2.47;2.27;;;;;;;-2.47;60.14;101295.61;1753337;81;20931;-82
2022/01/19 11:07:44;;;;;;;2.40;2.20;;;;;;;-2.47;60.42;101299.46;1753361;81;22075;-84
2022/01/19 11:10:18;;;;;;;3.10;1.98;;;;;;;-2.41;60.81;101302.92;1753330;81;20935;-84
2022/01/19 11:12:48;;;;;;;5.08;2.62;;;;;;;-2.36;60.97;101293.52;1753113;81;21334;-84
2022/01/19 11:15:18;;;;;;;1.90;1.77;;;;;;;-2.38;61.07;101291.80;1753497;81;21418;-83
2022/01/19 11:17:48;;;;;;;2.60;2.00;;;;;;;-2.38;61.34;101296.93;1753318;81;20893;-84
2022/01/19 11:20:18;;;;;;;4.05;1.85;;;;;;;-2.44;61.25;101302.92;1753137;81;21214;-83
2022/01/19 11:23:23;;;;;;;2.87;2.55;;;;;;;-2.52;61.45;101295.16;1754254;81;20983;-83
2022/01/19 11:26:07;;;;;;;;;;;;;;;-2.58;61.82;101307.99;1756503;81;21532;-82
2022/01/19 11:28:42;;;;;;;6.17;4.37;;;;;;;-2.61;61.91;101300.26;1753438;81;20568;-86
2022/01/19 11:31:19;;;;;;;;;;;;;;;-2.61;62.27;101299.41;1756423;81;21002;-83
2022/01/19 11:33:56;;;;;;;5.33;3.12;;;;;;;-2.62;62.37;101309.25;1743160;81;20875;-85
2022/01/19 11:36:34;;;;;;;5.40;2.20;;;;;;;-2.68;62.63;101307.94;1733133;82;20928;-83
2022/01/19 11:39:11;;;;;;;3.40;2.33;;;;;;;-2.74;62.83;101310.88;1732687;82;20932;-80
2022/01/19 11:41:43;;;;;;;4.28;2.27;;;;;;;-2.76;63.34;101321.98;1732677;82;21473;-83
2022/01/19 11:44:18;;;;;;;4.95;2.10;;;;;;;-2.80;63.41;101317.28;1733626;82;21433;-82
2022/01/19 11:46:52;;;;;;;3.47;1.85;;;;;;;-2.82;63.69;101321.55;1732658;82;21082;-82
2022/01/19 11:49:54;;;;;;;3.50;3.05;;;;;;;-2.85;63.80;101329.63;1732669;81;21460;-82
2022/01/19 11:52:26;;;;;;;2.33;1.70;;;;;;;-2.88;64.11;101328.34;1732867;82;20896;-82
2022/01/19 11:55:16;;;;;;;2.72;1.98;;;;;;;-2.86;63.97;101326.22;1733505;82;20912;-83
2022/01/19 11:57:45;;;;;;;2.62;1.85;;;;;;;-2.87;64.18;101337.74;1732731;82;20900;-84
2022/01/19 12:00:21;;;;;;;3.75;1.98;;;;;;;-2.87;64.29;101337.74;1732890;82;21148;-83
2022/01/19 12:02:51;;;;;;;6.08;4.28;;;;;;;-2.86;64.42;101339.05;1733085;82;21018;-86
2022/01/19 12:05:29;;;;;;;3.17;2.58;;;;;;;-2.86;64.39;101343.33;1732962;82;20979;-81
2022/01/19 12:08:01;;;;;;;2.47;2.15;;;;;;;-2.85;64.35;101347.17;1732581;82;20920;-82
2022/01/19 12:10:39;;;;;;;5.00;2.12;;;;;;;-2.86;64.45;101345.46;1732919;82;20936;-82
2022/01/19 12:13:32;;;;;;;2.60;2.08;;;;;;;-2.88;64.28;101348.87;1731878;82;21554;-82
2022/01/19 12:16:08;;;;;;;4.25;2.70;;;;;;;-2.90;64.30;101339.88;1732623;82;20985;-83
2022/01/19 12:19:07;;;;;;;2.50;2.02;;;;;;;-2.96;64.00;101340.70;1732572;82;21062;-79
2022/01/19 12:21:45;;;;;;;6.20;4.95;;;;;;;-2.98;63.93;101338.55;1732768;81;20916;-81
2022/01/19 12:24:29;;;;;;;4.25;2.33;;;;;;;-3.05;64.17;101344.89;1732637;82;20935;-82
2022/01/19 12:27:17;;;;;;;4.47;2.75;;;;;;;-3.11;64.06;101340.59;1731582;82;20896;-81
2022/01/19 12:29:50;;;;;;;6.37;3.55;;;;;;;-3.20;64.12;101341.77;1732586;81;20936;-84
2022/01/19 12:32:23;;;;;;;4.90;3.35;;;;;;;-3.32;64.33;101339.97;1732869;82;20908;-81
2022/01/19 12:34:56;;;;;;;3.10;2.40;;;;;;;-3.33;64.62;101348.52;1753193;81;20939;-86
2022/01/19 12:37:43;;;;;;;3.65;2.58;;;;;;;-3.32;64.53;101349.38;1757142;81;20924;-83
2022/01/19 12:40:24;;;;;;;2.95;2.05;;;;;;;-3.33;64.34;101356.22;1759062;81;21184;-81
2022/01/19 12:42:56;;;;;;;3.72;2.58;;;;;;;-3.34;64.36;101362.17;1757221;81;21382;-81
2022/01/19 12:45:36;;;;;;;6.40;3.50;;;;;;;-3.32;64.50;101367.33;1775823;80;20924;-91
2022/01/19 12:48:07;;;;;;;5.08;3.08;;;;;;;-3.32;64.67;101368.61;1776009;80;20864;-81
2022/01/19 12:50:37;;;;;;;4.58;2.10;;;;;;;-3.34;64.43;101370.72;1776225;80;20857;-78
2022/01/19 12:53:15;;;;;;;4.70;2.33;;;;;;;-3.38;64.23;101362.59;1776020;80;21525;-77
2022/01/19 12:55:47;;;;;;;5.08;2.92;;;;;;;-3.41;64.29;101359.13;1776194;80;20845;-78
2022/01/19 12:58:33;;;;;;;3.60;2.22;;;;;;;-3.43;64.53;101356.53;1776083;80;20916;-79
2022/01/19 13:01:03;;;;;;;5.05;2.33;;;;;;;-3.42;64.49;101355.70;1775897;80;20916;-79
2022/01/19 13:03:41;;;;;;;3.45;2.67;;;;;;;-3.42;64.62;101354.86;1775487;80;20904;-78
2022/01/19 13:06:14;;;;;;;4.00;2.22;;;;;;;-3.43;64.44;101355.69;1776270;80;20968;-77